sensor_id;sensor_type;location;lat;lon;timestamp;P1;durP1;ratioP1;P2;durP2;ratioP2
21876;SDS011;11103;43.788;23.710;2022-10-16T00:02:24;26.70;;;17.30;;
21876;SDS011;11103;43.788;23.710;2022-10-16T00:07:35;28.33;;;17.50;;
21876;SDS011;11103;43.788;23.710;2022-10-16T00:10:00;29.67;;;17.10;;
21876;SDS011;11103;43.788;23.710;2022-10-16T00:12:44;27.13;;;16.60;;
21876;SDS011;11103;43.788;23.710;2022-10-16T00:15:09;25.97;;;16.27;;
21876;SDS011;11103;43.788;23.710;2022-10-16T00:17:35;32.60;;;16.80;;
21876;SDS011;11103;43.788;23.710;2022-10-16T00:20:00;24.40;;;15.30;;
21876;SDS011;11103;43.788;23.710;2022-10-16T00:25:21;25.80;;;15.90;;
21876;SDS011;11103;43.788;23.710;2022-10-16T00:27:46;25.20;;;14.80;;
21876;SDS011;11103;43.788;23.710;2022-10-16T00:30:12;25.17;;;15.67;;
21876;SDS011;11103;43.788;23.710;2022-10-16T00:32:43;26.17;;;16.47;;
21876;SDS011;11103;43.788;23.710;2022-10-16T00:35:09;28.07;;;15.90;;
21876;SDS011;11103;43.788;23.710;2022-10-16T00:37:34;24.03;;;16.03;;
21876;SDS011;11103;43.788;23.710;2022-10-16T00:40:00;27.97;;;15.70;;
21876;SDS011;11103;43.788;23.710;2022-10-16T00:42:25;28.07;;;17.00;;
21876;SDS011;11103;43.788;23.710;2022-10-16T00:44:52;26.60;;;15.63;;
21876;SDS011;11103;43.788;23.710;2022-10-16T00:52:30;25.27;;;15.43;;
21876;SDS011;11103;43.788;23.710;2022-10-16T00:54:56;30.57;;;15.90;;
21876;SDS011;11103;43.788;23.710;2022-10-16T00:57:29;28.97;;;17.07;;
21876;SDS011;11103;43.788;23.710;2022-10-16T00:59:54;23.73;;;15.20;;
21876;SDS011;11103;43.788;23.710;2022-10-16T01:02:21;25.97;;;16.50;;
21876;SDS011;11103;43.788;23.710;2022-10-16T01:10:07;26.53;;;15.63;;
21876;SDS011;11103;43.788;23.710;2022-10-16T01:13:35;29.53;;;15.50;;
21876;SDS011;11103;43.788;23.710;2022-10-16T01:20:59;27.53;;;15.57;;
21876;SDS011;11103;43.788;23.710;2022-10-16T01:31:39;21.77;;;14.70;;
21876;SDS011;11103;43.788;23.710;2022-10-16T01:37:28;22.13;;;15.23;;
21876;SDS011;11103;43.788;23.710;2022-10-16T01:39:58;23.90;;;15.93;;
21876;SDS011;11103;43.788;23.710;2022-10-16T01:42:29;22.90;;;15.17;;
21876;SDS011;11103;43.788;23.710;2022-10-16T01:45:00;22.93;;;15.50;;
21876;SDS011;11103;43.788;23.710;2022-10-16T01:47:26;26.23;;;15.70;;
21876;SDS011;11103;43.788;23.710;2022-10-16T01:49:53;28.77;;;16.13;;
21876;SDS011;11103;43.788;23.710;2022-10-16T01:52:21;24.77;;;15.40;;
21876;SDS011;11103;43.788;23.710;2022-10-16T01:54:50;24.13;;;16.00;;
21876;SDS011;11103;43.788;23.710;2022-10-16T01:57:17;32.80;;;16.23;;
21876;SDS011;11103;43.788;23.710;2022-10-16T01:59:50;25.20;;;15.73;;
21876;SDS011;11103;43.788;23.710;2022-10-16T02:02:20;27.13;;;15.30;;
21876;SDS011;11103;43.788;23.710;2022-10-16T02:05:10;24.50;;;14.47;;
21876;SDS011;11103;43.788;23.710;2022-10-16T02:07:37;26.13;;;15.53;;
21876;SDS011;11103;43.788;23.710;2022-10-16T02:10:03;32.63;;;17.33;;
21876;SDS011;11103;43.788;23.710;2022-10-16T02:12:30;30.40;;;16.23;;
21876;SDS011;11103;43.788;23.710;2022-10-16T02:14:58;26.57;;;16.57;;
21876;SDS011;11103;43.788;23.710;2022-10-16T02:17:24;22.77;;;15.07;;
21876;SDS011;11103;43.788;23.710;2022-10-16T02:19:50;30.00;;;15.87;;
21876;SDS011;11103;43.788;23.710;2022-10-16T02:22:25;27.43;;;15.17;;
21876;SDS011;11103;43.788;23.710;2022-10-16T02:30:36;28.50;;;17.67;;
21876;SDS011;11103;43.788;23.710;2022-10-16T02:33:06;27.67;;;16.37;;
21876;SDS011;11103;43.788;23.710;2022-10-16T02:35:34;29.30;;;17.00;;
21876;SDS011;11103;43.788;23.710;2022-10-16T02:38:01;22.63;;;16.10;;
21876;SDS011;11103;43.788;23.710;2022-10-16T02:40:28;25.70;;;16.13;;
21876;SDS011;11103;43.788;23.710;2022-10-16T02:42:54;25.33;;;16.03;;
21876;SDS011;11103;43.788;23.710;2022-10-16T02:45:20;24.00;;;16.33;;
21876;SDS011;11103;43.788;23.710;2022-10-16T02:47:47;25.63;;;15.97;;
21876;SDS011;11103;43.788;23.710;2022-10-16T02:50:13;27.27;;;15.37;;
21876;SDS011;11103;43.788;23.710;2022-10-16T02:52:38;23.80;;;15.67;;
21876;SDS011;11103;43.788;23.710;2022-10-16T02:55:04;24.77;;;16.43;;
21876;SDS011;11103;43.788;23.710;2022-10-16T02:57:31;27.67;;;15.57;;
21876;SDS011;11103;43.788;23.710;2022-10-16T02:59:56;23.43;;;15.03;;
21876;SDS011;11103;43.788;23.710;2022-10-16T03:02:22;23.07;;;15.83;;
21876;SDS011;11103;43.788;23.710;2022-10-16T03:04:48;26.20;;;16.53;;
21876;SDS011;11103;43.788;23.710;2022-10-16T03:07:13;31.10;;;15.93;;
21876;SDS011;11103;43.788;23.710;2022-10-16T03:09:38;24.90;;;16.33;;
21876;SDS011;11103;43.788;23.710;2022-10-16T03:12:11;24.57;;;15.20;;
21876;SDS011;11103;43.788;23.710;2022-10-16T03:14:37;28.23;;;15.63;;
21876;SDS011;11103;43.788;23.710;2022-10-16T03:17:02;25.13;;;16.70;;
21876;SDS011;11103;43.788;23.710;2022-10-16T03:19:27;26.23;;;16.07;;
21876;SDS011;11103;43.788;23.710;2022-10-16T03:21:53;26.57;;;15.67;;
21876;SDS011;11103;43.788;23.710;2022-10-16T03:24:18;24.37;;;15.77;;
21876;SDS011;11103;43.788;23.710;2022-10-16T03:26:44;23.53;;;16.10;;
21876;SDS011;11103;43.788;23.710;2022-10-16T03:29:09;29.20;;;16.57;;
21876;SDS011;11103;43.788;23.710;2022-10-16T03:31:34;25.27;;;17.00;;
21876;SDS011;11103;43.788;23.710;2022-10-16T03:34:00;28.40;;;17.10;;
21876;SDS011;11103;43.788;23.710;2022-10-16T03:36:25;39.13;;;21.13;;
21876;SDS011;11103;43.788;23.710;2022-10-16T03:38:51;29.40;;;19.80;;
21876;SDS011;11103;43.788;23.710;2022-10-16T03:41:16;39.53;;;25.37;;
21876;SDS011;11103;43.788;23.710;2022-10-16T03:43:42;46.73;;;29.03;;
21876;SDS011;11103;43.788;23.710;2022-10-16T03:46:07;50.63;;;28.73;;
21876;SDS011;11103;43.788;23.710;2022-10-16T03:48:33;46.83;;;28.77;;
21876;SDS011;11103;43.788;23.710;2022-10-16T03:50:58;43.90;;;28.93;;
21876;SDS011;11103;43.788;23.710;2022-10-16T03:53:24;40.23;;;26.60;;
21876;SDS011;11103;43.788;23.710;2022-10-16T03:55:49;38.80;;;23.40;;
21876;SDS011;11103;43.788;23.710;2022-10-16T03:58:15;34.00;;;20.70;;
21876;SDS011;11103;43.788;23.710;2022-10-16T04:00:44;34.67;;;21.30;;
21876;SDS011;11103;43.788;23.710;2022-10-16T04:03:10;31.27;;;18.87;;
21876;SDS011;11103;43.788;23.710;2022-10-16T04:05:36;29.33;;;18.60;;
21876;SDS011;11103;43.788;23.710;2022-10-16T04:08:02;32.50;;;18.37;;
21876;SDS011;11103;43.788;23.710;2022-10-16T04:10:27;27.00;;;17.37;;
21876;SDS011;11103;43.788;23.710;2022-10-16T04:12:53;31.43;;;18.77;;
21876;SDS011;11103;43.788;23.710;2022-10-16T04:15:25;27.13;;;17.30;;
21876;SDS011;11103;43.788;23.710;2022-10-16T04:17:51;31.00;;;19.60;;
21876;SDS011;11103;43.788;23.710;2022-10-16T04:20:17;27.80;;;19.27;;
21876;SDS011;11103;43.788;23.710;2022-10-16T04:22:43;33.47;;;20.53;;
21876;SDS011;11103;43.788;23.710;2022-10-16T04:25:08;31.67;;;19.27;;
21876;SDS011;11103;43.788;23.710;2022-10-16T04:27:34;30.00;;;19.10;;
21876;SDS011;11103;43.788;23.710;2022-10-16T04:29:59;30.40;;;18.70;;
21876;SDS011;11103;43.788;23.710;2022-10-16T04:32:25;32.77;;;19.13;;
21876;SDS011;11103;43.788;23.710;2022-10-16T04:34:51;34.20;;;17.93;;
21876;SDS011;11103;43.788;23.710;2022-10-16T04:37:17;32.53;;;18.43;;
21876;SDS011;11103;43.788;23.710;2022-10-16T04:39:42;30.10;;;18.87;;
21876;SDS011;11103;43.788;23.710;2022-10-16T04:42:08;34.17;;;17.73;;
21876;SDS011;11103;43.788;23.710;2022-10-16T04:44:34;38.23;;;19.57;;
21876;SDS011;11103;43.788;23.710;2022-10-16T04:46:59;31.27;;;20.30;;
21876;SDS011;11103;43.788;23.710;2022-10-16T04:49:25;34.43;;;20.27;;
21876;SDS011;11103;43.788;23.710;2022-10-16T04:51:50;31.67;;;20.17;;
21876;SDS011;11103;43.788;23.710;2022-10-16T04:54:17;31.53;;;19.13;;
21876;SDS011;11103;43.788;23.710;2022-10-16T04:56:43;27.00;;;18.93;;
21876;SDS011;11103;43.788;23.710;2022-10-16T04:59:12;34.63;;;17.67;;
21876;SDS011;11103;43.788;23.710;2022-10-16T05:01:41;30.00;;;18.70;;
21876;SDS011;11103;43.788;23.710;2022-10-16T05:04:07;26.03;;;16.57;;
21876;SDS011;11103;43.788;23.710;2022-10-16T05:06:32;27.90;;;16.50;;
21876;SDS011;11103;43.788;23.710;2022-10-16T05:08:58;25.63;;;16.27;;
21876;SDS011;11103;43.788;23.710;2022-10-16T05:11:23;23.53;;;16.90;;
21876;SDS011;11103;43.788;23.710;2022-10-16T05:13:49;27.17;;;17.23;;
21876;SDS011;11103;43.788;23.710;2022-10-16T05:16:14;27.77;;;16.70;;
21876;SDS011;11103;43.788;23.710;2022-10-16T05:18:40;27.17;;;17.50;;
21876;SDS011;11103;43.788;23.710;2022-10-16T05:21:05;32.17;;;19.37;;
21876;SDS011;11103;43.788;23.710;2022-10-16T05:23:31;29.07;;;18.40;;
21876;SDS011;11103;43.788;23.710;2022-10-16T05:25:57;31.90;;;17.90;;
21876;SDS011;11103;43.788;23.710;2022-10-16T05:28:24;34.53;;;18.73;;
21876;SDS011;11103;43.788;23.710;2022-10-16T05:30:50;25.83;;;16.77;;
21876;SDS011;11103;43.788;23.710;2022-10-16T05:33:16;26.93;;;15.97;;
21876;SDS011;11103;43.788;23.710;2022-10-16T05:35:41;27.90;;;16.07;;
21876;SDS011;11103;43.788;23.710;2022-10-16T05:38:07;27.47;;;16.67;;
21876;SDS011;11103;43.788;23.710;2022-10-16T05:40:32;24.73;;;15.67;;
21876;SDS011;11103;43.788;23.710;2022-10-16T05:42:58;33.83;;;17.57;;
21876;SDS011;11103;43.788;23.710;2022-10-16T05:45:23;28.80;;;17.50;;
21876;SDS011;11103;43.788;23.710;2022-10-16T05:47:49;26.57;;;15.97;;
21876;SDS011;11103;43.788;23.710;2022-10-16T05:50:14;23.67;;;16.37;;
21876;SDS011;11103;43.788;23.710;2022-10-16T05:52:39;24.97;;;17.07;;
21876;SDS011;11103;43.788;23.710;2022-10-16T05:55:05;32.10;;;16.20;;
21876;SDS011;11103;43.788;23.710;2022-10-16T05:57:30;26.70;;;16.97;;
21876;SDS011;11103;43.788;23.710;2022-10-16T05:59:56;21.93;;;15.73;;
21876;SDS011;11103;43.788;23.710;2022-10-16T06:02:22;23.83;;;14.90;;
21876;SDS011;11103;43.788;23.710;2022-10-16T06:04:47;27.77;;;16.63;;
21876;SDS011;11103;43.788;23.710;2022-10-16T06:07:13;27.40;;;16.63;;
21876;SDS011;11103;43.788;23.710;2022-10-16T06:09:38;27.93;;;16.10;;
21876;SDS011;11103;43.788;23.710;2022-10-16T06:12:04;32.53;;;18.20;;
21876;SDS011;11103;43.788;23.710;2022-10-16T06:14:29;28.13;;;17.87;;
21876;SDS011;11103;43.788;23.710;2022-10-16T06:16:54;30.10;;;17.50;;
21876;SDS011;11103;43.788;23.710;2022-10-16T06:19:20;29.07;;;18.50;;
21876;SDS011;11103;43.788;23.710;2022-10-16T06:21:45;31.63;;;17.60;;
21876;SDS011;11103;43.788;23.710;2022-10-16T06:24:12;25.20;;;17.63;;
21876;SDS011;11103;43.788;23.710;2022-10-16T06:26:38;27.43;;;16.73;;
21876;SDS011;11103;43.788;23.710;2022-10-16T06:29:03;29.50;;;17.23;;
21876;SDS011;11103;43.788;23.710;2022-10-16T06:31:31;36.87;;;16.87;;
21876;SDS011;11103;43.788;23.710;2022-10-16T06:33:58;25.13;;;16.90;;
21876;SDS011;11103;43.788;23.710;2022-10-16T06:36:24;27.83;;;17.13;;
21876;SDS011;11103;43.788;23.710;2022-10-16T06:38:53;28.17;;;17.07;;
21876;SDS011;11103;43.788;23.710;2022-10-16T06:41:19;33.83;;;18.27;;
21876;SDS011;11103;43.788;23.710;2022-10-16T06:43:46;23.13;;;16.13;;
21876;SDS011;11103;43.788;23.710;2022-10-16T06:46:13;25.10;;;16.80;;
21876;SDS011;11103;43.788;23.710;2022-10-16T06:48:41;27.00;;;16.90;;
21876;SDS011;11103;43.788;23.710;2022-10-16T06:51:14;29.33;;;17.47;;
21876;SDS011;11103;43.788;23.710;2022-10-16T06:53:44;26.03;;;16.70;;
21876;SDS011;11103;43.788;23.710;2022-10-16T06:56:18;27.73;;;17.93;;
21876;SDS011;11103;43.788;23.710;2022-10-16T06:58:45;39.40;;;19.03;;
21876;SDS011;11103;43.788;23.710;2022-10-16T07:01:11;28.03;;;17.90;;
21876;SDS011;11103;43.788;23.710;2022-10-16T07:03:38;31.90;;;18.10;;
21876;SDS011;11103;43.788;23.710;2022-10-16T07:06:06;36.57;;;17.57;;
21876;SDS011;11103;43.788;23.710;2022-10-16T07:08:33;26.37;;;16.67;;
21876;SDS011;11103;43.788;23.710;2022-10-16T07:11:12;26.30;;;18.20;;
21876;SDS011;11103;43.788;23.710;2022-10-16T07:13:40;26.53;;;16.80;;
21876;SDS011;11103;43.788;23.710;2022-10-16T07:16:07;27.13;;;16.53;;
21876;SDS011;11103;43.788;23.710;2022-10-16T07:18:37;27.23;;;16.70;;
21876;SDS011;11103;43.788;23.710;2022-10-16T07:21:11;24.57;;;16.80;;
21876;SDS011;11103;43.788;23.710;2022-10-16T07:23:41;27.07;;;16.73;;
21876;SDS011;11103;43.788;23.710;2022-10-16T07:26:08;28.50;;;17.20;;
21876;SDS011;11103;43.788;23.710;2022-10-16T07:28:35;30.83;;;16.53;;
21876;SDS011;11103;43.788;23.710;2022-10-16T07:31:01;31.83;;;16.03;;
21876;SDS011;11103;43.788;23.710;2022-10-16T07:33:31;38.70;;;20.80;;
21876;SDS011;11103;43.788;23.710;2022-10-16T07:35:58;41.17;;;22.13;;
21876;SDS011;11103;43.788;23.710;2022-10-16T07:38:23;36.20;;;21.30;;
21876;SDS011;11103;43.788;23.710;2022-10-16T07:40:55;28.07;;;18.20;;
21876;SDS011;11103;43.788;23.710;2022-10-16T07:43:21;31.13;;;17.13;;
21876;SDS011;11103;43.788;23.710;2022-10-16T07:45:48;34.37;;;18.77;;
21876;SDS011;11103;43.788;23.710;2022-10-16T07:48:14;31.67;;;18.93;;
21876;SDS011;11103;43.788;23.710;2022-10-16T07:50:40;43.50;;;22.13;;
21876;SDS011;11103;43.788;23.710;2022-10-16T07:53:06;31.70;;;18.83;;
21876;SDS011;11103;43.788;23.710;2022-10-16T07:55:31;37.33;;;19.13;;
21876;SDS011;11103;43.788;23.710;2022-10-16T07:57:57;29.33;;;19.17;;
21876;SDS011;11103;43.788;23.710;2022-10-16T08:00:22;30.37;;;17.43;;
21876;SDS011;11103;43.788;23.710;2022-10-16T08:02:47;27.43;;;15.40;;
21876;SDS011;11103;43.788;23.710;2022-10-16T08:05:13;25.77;;;15.47;;
21876;SDS011;11103;43.788;23.710;2022-10-16T08:07:38;27.10;;;14.93;;
21876;SDS011;11103;43.788;23.710;2022-10-16T08:10:04;21.63;;;14.57;;
21876;SDS011;11103;43.788;23.710;2022-10-16T08:12:30;19.77;;;14.80;;
21876;SDS011;11103;43.788;23.710;2022-10-16T08:14:55;26.77;;;16.43;;
21876;SDS011;11103;43.788;23.710;2022-10-16T08:17:21;24.73;;;14.67;;
21876;SDS011;11103;43.788;23.710;2022-10-16T08:19:46;23.77;;;15.20;;
21876;SDS011;11103;43.788;23.710;2022-10-16T08:22:12;22.70;;;13.90;;
21876;SDS011;11103;43.788;23.710;2022-10-16T08:24:38;24.97;;;14.70;;
21876;SDS011;11103;43.788;23.710;2022-10-16T08:27:04;25.10;;;15.63;;
21876;SDS011;11103;43.788;23.710;2022-10-16T08:29:30;25.43;;;15.63;;
21876;SDS011;11103;43.788;23.710;2022-10-16T08:31:55;21.00;;;14.47;;
21876;SDS011;11103;43.788;23.710;2022-10-16T08:34:21;24.17;;;15.10;;
21876;SDS011;11103;43.788;23.710;2022-10-16T08:36:47;22.43;;;14.00;;
21876;SDS011;11103;43.788;23.710;2022-10-16T08:39:13;22.70;;;13.63;;
21876;SDS011;11103;43.788;23.710;2022-10-16T08:47:20;22.40;;;14.50;;
21876;SDS011;11103;43.788;23.710;2022-10-16T08:49:59;28.83;;;17.27;;
21876;SDS011;11103;43.788;23.710;2022-10-16T08:52:33;27.43;;;13.90;;
21876;SDS011;11103;43.788;23.710;2022-10-16T08:55:03;21.73;;;13.57;;
21876;SDS011;11103;43.788;23.710;2022-10-16T08:57:29;28.57;;;16.77;;
21876;SDS011;11103;43.788;23.710;2022-10-16T08:59:57;22.57;;;13.43;;
21876;SDS011;11103;43.788;23.710;2022-10-16T09:02:40;21.60;;;13.90;;
21876;SDS011;11103;43.788;23.710;2022-10-16T09:08:20;24.07;;;15.90;;
21876;SDS011;11103;43.788;23.710;2022-10-16T09:13:39;23.40;;;14.23;;
21876;SDS011;11103;43.788;23.710;2022-10-16T09:23:43;27.23;;;13.73;;
21876;SDS011;11103;43.788;23.710;2022-10-16T09:26:10;20.27;;;11.63;;
21876;SDS011;11103;43.788;23.710;2022-10-16T09:28:38;17.17;;;11.40;;
21876;SDS011;11103;43.788;23.710;2022-10-16T09:31:03;16.70;;;11.90;;
21876;SDS011;11103;43.788;23.710;2022-10-16T09:33:29;18.53;;;11.93;;
21876;SDS011;11103;43.788;23.710;2022-10-16T09:36:00;18.00;;;11.83;;
21876;SDS011;11103;43.788;23.710;2022-10-16T09:38:29;30.27;;;17.83;;
21876;SDS011;11103;43.788;23.710;2022-10-16T09:40:57;23.80;;;13.40;;
21876;SDS011;11103;43.788;23.710;2022-10-16T09:43:25;17.37;;;11.07;;
21876;SDS011;11103;43.788;23.710;2022-10-16T09:46:01;17.23;;;11.17;;
21876;SDS011;11103;43.788;23.710;2022-10-16T09:48:36;15.03;;;10.00;;
21876;SDS011;11103;43.788;23.710;2022-10-16T09:51:05;14.73;;;9.73;;
21876;SDS011;11103;43.788;23.710;2022-10-16T09:53:44;16.97;;;10.17;;
21876;SDS011;11103;43.788;23.710;2022-10-16T09:56:12;17.03;;;10.27;;
21876;SDS011;11103;43.788;23.710;2022-10-16T09:58:58;12.63;;;9.60;;
21876;SDS011;11103;43.788;23.710;2022-10-16T10:01:28;16.43;;;9.23;;
21876;SDS011;11103;43.788;23.710;2022-10-16T10:04:00;14.30;;;9.00;;
21876;SDS011;11103;43.788;23.710;2022-10-16T10:06:31;14.80;;;9.20;;
21876;SDS011;11103;43.788;23.710;2022-10-16T10:09:01;15.90;;;8.67;;
21876;SDS011;11103;43.788;23.710;2022-10-16T10:11:40;15.83;;;8.20;;
21876;SDS011;11103;43.788;23.710;2022-10-16T10:14:20;14.33;;;8.27;;
21876;SDS011;11103;43.788;23.710;2022-10-16T10:16:47;12.47;;;8.27;;
21876;SDS011;11103;43.788;23.710;2022-10-16T10:19:23;13.83;;;8.17;;
21876;SDS011;11103;43.788;23.710;2022-10-16T10:21:49;14.10;;;7.87;;
21876;SDS011;11103;43.788;23.710;2022-10-16T10:24:16;15.73;;;7.40;;
21876;SDS011;11103;43.788;23.710;2022-10-16T10:26:47;11.50;;;7.80;;
21876;SDS011;11103;43.788;23.710;2022-10-16T10:35:12;9.77;;;7.20;;
21876;SDS011;11103;43.788;23.710;2022-10-16T10:46:06;11.83;;;6.73;;
21876;SDS011;11103;43.788;23.710;2022-10-16T10:49:02;7.63;;;5.90;;
21876;SDS011;11103;43.788;23.710;2022-10-16T10:51:47;8.90;;;5.73;;
21876;SDS011;11103;43.788;23.710;2022-10-16T10:57:25;7.03;;;4.53;;
21876;SDS011;11103;43.788;23.710;2022-10-16T11:00:00;7.93;;;4.40;;
21876;SDS011;11103;43.788;23.710;2022-10-16T11:02:39;11.00;;;5.67;;
21876;SDS011;11103;43.788;23.710;2022-10-16T11:11:02;12.30;;;5.57;;
21876;SDS011;11103;43.788;23.710;2022-10-16T11:16:50;8.50;;;5.87;;
21876;SDS011;11103;43.788;23.710;2022-10-16T11:21:29;13.57;;;6.27;;
21876;SDS011;11103;43.788;23.710;2022-10-16T11:24:23;12.57;;;6.27;;
21876;SDS011;11103;43.788;23.710;2022-10-16T11:27:08;8.00;;;6.37;;
21876;SDS011;11103;43.788;23.710;2022-10-16T11:29:40;12.23;;;6.10;;
21876;SDS011;11103;43.788;23.710;2022-10-16T11:32:18;9.83;;;6.27;;
21876;SDS011;11103;43.788;23.710;2022-10-16T11:35:06;13.80;;;7.53;;
21876;SDS011;11103;43.788;23.710;2022-10-16T11:37:41;8.53;;;5.70;;
21876;SDS011;11103;43.788;23.710;2022-10-16T11:42:51;13.63;;;6.03;;
21876;SDS011;11103;43.788;23.710;2022-10-16T11:45:26;9.33;;;6.10;;
21876;SDS011;11103;43.788;23.710;2022-10-16T11:55:58;10.13;;;6.57;;
21876;SDS011;11103;43.788;23.710;2022-10-16T12:06:28;8.33;;;5.90;;
21876;SDS011;11103;43.788;23.710;2022-10-16T12:09:27;9.63;;;6.17;;
21876;SDS011;11103;43.788;23.710;2022-10-16T12:11:54;7.47;;;5.20;;
21876;SDS011;11103;43.788;23.710;2022-10-16T12:14:22;7.13;;;5.63;;
21876;SDS011;11103;43.788;23.710;2022-10-16T12:17:00;8.47;;;6.00;;
21876;SDS011;11103;43.788;23.710;2022-10-16T12:19:30;10.53;;;6.13;;
21876;SDS011;11103;43.788;23.710;2022-10-16T12:21:57;8.83;;;6.30;;
21876;SDS011;11103;43.788;23.710;2022-10-16T12:26:56;20.57;;;8.80;;
21876;SDS011;11103;43.788;23.710;2022-10-16T12:29:25;10.03;;;6.30;;
21876;SDS011;11103;43.788;23.710;2022-10-16T12:31:57;9.57;;;5.80;;
21876;SDS011;11103;43.788;23.710;2022-10-16T12:37:09;22.40;;;6.03;;
21876;SDS011;11103;43.788;23.710;2022-10-16T12:39:38;10.23;;;6.33;;
21876;SDS011;11103;43.788;23.710;2022-10-16T12:42:17;13.73;;;7.00;;
21876;SDS011;11103;43.788;23.710;2022-10-16T12:44:44;9.47;;;6.43;;
21876;SDS011;11103;43.788;23.710;2022-10-16T12:47:18;8.37;;;6.23;;
21876;SDS011;11103;43.788;23.710;2022-10-16T12:49:50;12.03;;;6.40;;
21876;SDS011;11103;43.788;23.710;2022-10-16T12:55:03;9.70;;;6.07;;
21876;SDS011;11103;43.788;23.710;2022-10-16T12:57:47;14.77;;;8.50;;
21876;SDS011;11103;43.788;23.710;2022-10-16T13:00:56;8.17;;;5.97;;
21876;SDS011;11103;43.788;23.710;2022-10-16T13:09:00;9.07;;;6.33;;
21876;SDS011;11103;43.788;23.710;2022-10-16T13:17:08;6.47;;;5.73;;
21876;SDS011;11103;43.788;23.710;2022-10-16T13:20:06;9.57;;;5.63;;
21876;SDS011;11103;43.788;23.710;2022-10-16T13:28:46;7.37;;;5.70;;
21876;SDS011;11103;43.788;23.710;2022-10-16T13:31:15;12.07;;;6.03;;
21876;SDS011;11103;43.788;23.710;2022-10-16T13:33:48;8.63;;;5.97;;
21876;SDS011;11103;43.788;23.710;2022-10-16T13:36:26;11.27;;;6.20;;
21876;SDS011;11103;43.788;23.710;2022-10-16T13:39:01;8.07;;;6.17;;
21876;SDS011;11103;43.788;23.710;2022-10-16T13:41:36;13.30;;;6.67;;
21876;SDS011;11103;43.788;23.710;2022-10-16T13:44:02;12.20;;;6.73;;
21876;SDS011;11103;43.788;23.710;2022-10-16T13:46:28;8.53;;;6.63;;
21876;SDS011;11103;43.788;23.710;2022-10-16T13:49:20;21.03;;;8.70;;
21876;SDS011;11103;43.788;23.710;2022-10-16T13:54:41;12.47;;;7.37;;
21876;SDS011;11103;43.788;23.710;2022-10-16T13:57:07;25.30;;;13.53;;
21876;SDS011;11103;43.788;23.710;2022-10-16T13:59:33;20.53;;;10.90;;
21876;SDS011;11103;43.788;23.710;2022-10-16T14:02:00;12.33;;;8.30;;
21876;SDS011;11103;43.788;23.710;2022-10-16T14:04:38;9.27;;;5.97;;
21876;SDS011;11103;43.788;23.710;2022-10-16T14:07:04;42.47;;;24.50;;
21876;SDS011;11103;43.788;23.710;2022-10-16T14:09:30;17.73;;;11.40;;
21876;SDS011;11103;43.788;23.710;2022-10-16T14:12:17;26.60;;;17.00;;
21876;SDS011;11103;43.788;23.710;2022-10-16T14:14:46;11.90;;;7.03;;
21876;SDS011;11103;43.788;23.710;2022-10-16T14:17:16;19.50;;;12.93;;
21876;SDS011;11103;43.788;23.710;2022-10-16T14:19:45;17.67;;;8.53;;
21876;SDS011;11103;43.788;23.710;2022-10-16T14:22:22;13.83;;;7.93;;
21876;SDS011;11103;43.788;23.710;2022-10-16T14:24:53;40.53;;;21.27;;
21876;SDS011;11103;43.788;23.710;2022-10-16T14:27:27;17.60;;;9.90;;
21876;SDS011;11103;43.788;23.710;2022-10-16T14:30:15;11.20;;;7.33;;
21876;SDS011;11103;43.788;23.710;2022-10-16T14:32:42;9.87;;;7.00;;
21876;SDS011;11103;43.788;23.710;2022-10-16T14:35:26;14.23;;;7.27;;
21876;SDS011;11103;43.788;23.710;2022-10-16T14:38:00;9.53;;;6.90;;
21876;SDS011;11103;43.788;23.710;2022-10-16T14:40:28;12.67;;;6.97;;
21876;SDS011;11103;43.788;23.710;2022-10-16T14:42:55;14.37;;;7.23;;
21876;SDS011;11103;43.788;23.710;2022-10-16T14:45:22;17.73;;;7.47;;
21876;SDS011;11103;43.788;23.710;2022-10-16T14:47:55;14.03;;;7.83;;
21876;SDS011;11103;43.788;23.710;2022-10-16T14:50:22;12.17;;;7.40;;
21876;SDS011;11103;43.788;23.710;2022-10-16T14:52:48;15.13;;;7.53;;
21876;SDS011;11103;43.788;23.710;2022-10-16T14:55:13;10.27;;;7.40;;
21876;SDS011;11103;43.788;23.710;2022-10-16T14:57:39;15.43;;;7.47;;
21876;SDS011;11103;43.788;23.710;2022-10-16T15:00:27;19.77;;;7.83;;
21876;SDS011;11103;43.788;23.710;2022-10-16T15:02:51;16.97;;;9.17;;
21876;SDS011;11103;43.788;23.710;2022-10-16T15:05:24;17.53;;;8.70;;
21876;SDS011;11103;43.788;23.710;2022-10-16T15:07:52;89.03;;;47.20;;
21876;SDS011;11103;43.788;23.710;2022-10-16T15:10:18;262.50;;;186.43;;
21876;SDS011;11103;43.788;23.710;2022-10-16T15:12:45;369.73;;;255.40;;
21876;SDS011;11103;43.788;23.710;2022-10-16T15:15:16;221.10;;;135.07;;
21876;SDS011;11103;43.788;23.710;2022-10-16T15:17:52;82.73;;;57.97;;
21876;SDS011;11103;43.788;23.710;2022-10-16T15:20:20;63.60;;;37.47;;
21876;SDS011;11103;43.788;23.710;2022-10-16T15:22:48;87.63;;;39.23;;
21876;SDS011;11103;43.788;23.710;2022-10-16T15:27:54;61.70;;;21.40;;
21876;SDS011;11103;43.788;23.710;2022-10-16T15:30:20;114.07;;;44.43;;
21876;SDS011;11103;43.788;23.710;2022-10-16T15:32:47;395.07;;;235.03;;
21876;SDS011;11103;43.788;23.710;2022-10-16T15:35:12;283.40;;;151.37;;
21876;SDS011;11103;43.788;23.710;2022-10-16T15:37:37;201.43;;;94.50;;
21876;SDS011;11103;43.788;23.710;2022-10-16T15:40:03;82.50;;;43.83;;
21876;SDS011;11103;43.788;23.710;2022-10-16T15:42:29;80.07;;;47.07;;
21876;SDS011;11103;43.788;23.710;2022-10-16T15:44:54;55.17;;;25.70;;
21876;SDS011;11103;43.788;23.710;2022-10-16T15:47:19;34.43;;;17.60;;
21876;SDS011;11103;43.788;23.710;2022-10-16T15:49:46;26.83;;;12.67;;
21876;SDS011;11103;43.788;23.710;2022-10-16T15:52:12;65.43;;;33.57;;
21876;SDS011;11103;43.788;23.710;2022-10-16T15:54:37;22.77;;;13.40;;
21876;SDS011;11103;43.788;23.710;2022-10-16T15:57:03;20.80;;;10.80;;
21876;SDS011;11103;43.788;23.710;2022-10-16T15:59:28;262.30;;;119.27;;
21876;SDS011;11103;43.788;23.710;2022-10-16T16:01:54;139.57;;;62.33;;
21876;SDS011;11103;43.788;23.710;2022-10-16T16:04:19;41.60;;;22.10;;
21876;SDS011;11103;43.788;23.710;2022-10-16T16:06:45;239.83;;;132.97;;
21876;SDS011;11103;43.788;23.710;2022-10-16T16:09:11;288.33;;;150.43;;
21876;SDS011;11103;43.788;23.710;2022-10-16T16:11:46;156.33;;;70.93;;
21876;SDS011;11103;43.788;23.710;2022-10-16T16:14:12;149.70;;;61.93;;
21876;SDS011;11103;43.788;23.710;2022-10-16T16:16:38;84.97;;;40.10;;
21876;SDS011;11103;43.788;23.710;2022-10-16T16:19:04;38.27;;;21.40;;
21876;SDS011;11103;43.788;23.710;2022-10-16T16:21:32;36.33;;;16.43;;
21876;SDS011;11103;43.788;23.710;2022-10-16T16:23:58;19.23;;;11.43;;
21876;SDS011;11103;43.788;23.710;2022-10-16T16:26:25;17.80;;;11.80;;
21876;SDS011;11103;43.788;23.710;2022-10-16T16:28:56;33.93;;;16.00;;
21876;SDS011;11103;43.788;23.710;2022-10-16T16:31:25;92.43;;;30.60;;
21876;SDS011;11103;43.788;23.710;2022-10-16T16:33:52;77.87;;;28.17;;
21876;SDS011;11103;43.788;23.710;2022-10-16T16:36:24;137.03;;;55.43;;
21876;SDS011;11103;43.788;23.710;2022-10-16T16:38:50;246.13;;;120.57;;